createdAt,value
2019-03-22T00:05:07.901Z,10.27
2019-03-22T00:07:37.772Z,10.00
2019-03-22T00:15:33.748Z,10.15
2019-03-22T00:18:03.591Z,10.31
2019-03-22T00:20:33.458Z,9.78
2019-03-22T00:23:03.328Z,10.02
2019-03-22T00:25:32.485Z,9.68
2019-03-22T00:28:02.341Z,9.71
2019-03-22T00:30:32.212Z,9.92
2019-03-22T00:33:02.089Z,9.85
2019-03-22T00:35:31.999Z,9.44
2019-03-22T00:38:01.836Z,9.36
2019-03-22T00:40:31.715Z,9.37
2019-03-22T00:43:01.613Z,9.28
2019-03-22T00:45:31.477Z,9.68
2019-03-22T00:48:01.346Z,9.51
2019-03-22T00:50:31.198Z,9.90
2019-03-22T00:53:00.237Z,10.05
2019-03-22T00:55:30.120Z,9.92
2019-03-22T00:57:59.967Z,9.75
2019-03-22T01:00:29.922Z,9.56
2019-03-22T01:02:59.792Z,9.81
2019-03-22T01:05:29.643Z,9.64
2019-03-22T01:07:59.513Z,9.91
2019-03-22T01:10:29.389Z,9.68
2019-03-22T01:12:59.239Z,9.40
2019-03-22T01:15:29.288Z,9.29
2019-03-22T01:17:59.136Z,9.17
2019-03-22T01:20:29.015Z,9.10
2019-03-22T01:22:58.884Z,9.52
2019-03-22T01:25:28.752Z,9.71
2019-03-22T01:27:58.616Z,9.51
2019-03-22T01:30:28.473Z,9.50
2019-03-22T01:32:58.337Z,9.30
2019-03-22T01:35:28.208Z,8.98
2019-03-22T01:37:58.075Z,9.23
2019-03-22T01:40:38.253Z,8.78
2019-03-22T01:43:08.117Z,9.15
2019-03-22T01:45:38.001Z,8.98
2019-03-22T01:48:07.870Z,8.80
2019-03-22T01:50:37.747Z,8.86
2019-03-22T01:53:07.800Z,8.84
2019-03-22T01:55:37.650Z,8.69
2019-03-22T01:58:07.512Z,8.87
2019-03-22T02:00:37.471Z,9.05
2019-03-22T02:03:07.389Z,9.19
2019-03-22T02:05:37.251Z,9.28
2019-03-22T02:08:18.860Z,9.28
2019-03-22T02:10:48.033Z,9.33
2019-03-22T02:13:17.907Z,8.96
2019-03-22T02:15:47.787Z,9.68
2019-03-22T02:18:16.989Z,9.40
2019-03-22T02:20:46.879Z,9.03
2019-03-22T02:23:16.783Z,9.45
2019-03-22T02:25:46.644Z,9.44
2019-03-22T02:28:16.525Z,9.13
2019-03-22T02:30:46.503Z,8.97
2019-03-22T02:33:16.419Z,9.28
2019-03-22T02:35:46.317Z,9.34
2019-03-22T02:38:16.179Z,9.71
2019-03-22T02:40:46.048Z,9.46
2019-03-22T02:43:15.902Z,9.04
2019-03-22T02:45:45.764Z,8.88
2019-03-22T02:48:15.620Z,8.79
2019-03-22T02:50:45.487Z,9.30
2019-03-22T02:53:15.356Z,8.94
2019-03-22T02:55:44.564Z,8.57
2019-03-22T02:58:21.067Z,8.93
2019-03-22T03:01:04.281Z,9.20
2019-03-22T03:03:34.150Z,9.01
2019-03-22T03:06:04.178Z,8.89
2019-03-22T03:08:34.045Z,8.69
2019-03-22T03:11:03.339Z,8.74
2019-03-22T03:13:33.196Z,8.68
2019-03-22T03:18:47.067Z,8.81
2019-03-22T03:21:16.952Z,9.04
2019-03-22T03:23:46.829Z,9.41
2019-03-22T03:26:16.667Z,9.34
2019-03-22T03:28:46.525Z,8.95
2019-03-22T03:31:16.379Z,9.11
2019-03-22T03:33:46.253Z,9.01
2019-03-22T03:36:16.128Z,9.09
2019-03-22T03:38:45.983Z,8.73
2019-03-22T03:41:15.833Z,8.89
2019-03-22T03:43:45.738Z,8.88
2019-03-22T03:46:15.599Z,8.94
2019-03-22T03:48:44.771Z,8.81
2019-03-22T03:51:14.633Z,8.87
2019-03-22T03:53:44.543Z,8.93
2019-03-22T03:56:14.413Z,8.73
2019-03-22T03:58:52.267Z,8.78
2019-03-22T04:01:34.032Z,8.77
2019-03-22T04:04:14.731Z,8.77
2019-03-22T04:06:43.886Z,8.75
2019-03-22T04:09:13.751Z,8.86
2019-03-22T04:11:43.789Z,8.62
2019-03-22T04:14:13.612Z,8.25
2019-03-22T04:16:43.482Z,8.25
2019-03-22T04:19:13.335Z,8.09
2019-03-22T04:21:42.426Z,7.92
2019-03-22T04:24:12.267Z,7.86
2019-03-22T04:26:42.135Z,7.98
2019-03-22T04:29:12.001Z,8.34
2019-03-22T04:31:41.893Z,8.21
2019-03-22T04:34:11.728Z,7.85
2019-03-22T04:36:41.614Z,7.67
2019-03-22T04:39:11.460Z,7.65
2019-03-22T04:41:41.330Z,8.52
2019-03-22T04:44:11.198Z,8.22
2019-03-22T05:05:02.440Z,8.62
2019-03-22T05:07:44.037Z,8.53
2019-03-22T05:16:39.834Z,8.61
2019-03-22T05:34:09.277Z,8.61
2019-03-22T05:36:39.120Z,8.64
2019-03-22T05:39:09.582Z,8.63
2019-03-22T05:41:38.983Z,8.80
2019-03-22T05:44:08.862Z,8.55
2019-03-22T05:46:38.772Z,8.60
2019-03-22T05:49:08.636Z,8.63
2019-03-22T05:51:38.493Z,8.60
2019-03-22T05:54:08.367Z,9.00
2019-03-22T05:56:38.238Z,9.03
2019-03-22T05:59:08.104Z,8.85
2019-03-22T06:01:37.982Z,8.96
2019-03-22T06:04:07.853Z,8.87
2019-03-22T06:06:37.708Z,9.02
2019-03-22T06:09:08.691Z,9.45
2019-03-22T06:11:37.969Z,9.60
2019-03-22T06:14:07.827Z,9.25
2019-03-22T06:16:37.717Z,9.27
2019-03-22T06:19:07.593Z,9.50
2019-03-22T06:21:37.469Z,9.25
2019-03-22T06:24:07.451Z,9.93
2019-03-22T06:26:37.403Z,9.44
2019-03-22T06:29:07.307Z,9.69
2019-03-22T06:31:37.182Z,9.85
2019-03-22T06:34:07.064Z,9.66
2019-03-22T06:36:37.109Z,9.49
2019-03-22T06:39:08.863Z,9.37
2019-03-22T06:41:38.892Z,9.56
2019-03-22T06:44:08.372Z,9.60
2019-03-22T06:46:38.365Z,9.74
2019-03-22T06:49:08.245Z,9.89
2019-03-22T06:51:38.100Z,9.98
2019-03-22T06:54:07.978Z,10.01
2019-03-22T06:56:37.856Z,10.19
2019-03-22T06:59:07.732Z,10.39
2019-03-22T07:01:37.607Z,10.32
2019-03-22T07:04:07.464Z,10.21
2019-03-22T07:06:37.338Z,10.10
2019-03-22T07:09:08.631Z,10.33
2019-03-22T07:11:38.128Z,10.45
2019-03-22T07:14:08.036Z,10.58
2019-03-22T07:16:37.929Z,10.53
2019-03-22T07:19:07.828Z,10.59
2019-03-22T07:21:37.697Z,10.94
2019-03-22T07:26:47.418Z,10.84
2019-03-22T07:29:17.291Z,10.64
2019-03-22T07:31:47.163Z,11.01
2019-03-22T07:34:17.029Z,11.29
2019-03-22T07:36:47.229Z,11.27
2019-03-22T07:39:17.077Z,11.44
2019-03-22T07:41:46.988Z,11.74
2019-03-22T07:44:16.891Z,12.05
2019-03-22T07:46:46.759Z,11.69
2019-03-22T07:49:16.654Z,11.82
2019-03-22T07:51:46.551Z,12.02
2019-03-22T07:54:16.448Z,11.86
2019-03-22T07:56:46.319Z,11.95
2019-03-22T07:59:16.274Z,12.03
2019-03-22T08:01:46.199Z,12.22
2019-03-22T08:04:15.285Z,12.34
2019-03-22T08:06:45.149Z,12.45
2019-03-22T08:09:15.018Z,12.28
2019-03-22T08:11:44.911Z,12.33
2019-03-22T08:14:16.371Z,12.35
2019-03-22T08:17:04.569Z,12.19
2019-03-22T08:19:33.757Z,11.99
2019-03-22T08:22:03.623Z,12.15
2019-03-22T08:24:33.493Z,12.38
2019-03-22T08:27:03.504Z,12.54
2019-03-22T08:29:33.586Z,12.57
2019-03-22T08:32:03.455Z,12.74
2019-03-22T08:34:33.309Z,12.81
2019-03-22T08:37:03.242Z,12.74
2019-03-22T08:39:33.113Z,12.92
2019-03-22T08:42:03.001Z,13.12
2019-03-22T08:44:32.899Z,13.08
2019-03-22T08:47:02.914Z,12.90
2019-03-22T08:49:33.015Z,12.83
2019-03-22T08:55:23.821Z,14.37
2019-03-22T08:57:52.930Z,14.29
2019-03-22T09:00:22.968Z,14.36
2019-03-22T09:02:52.846Z,13.88
2019-03-22T09:05:22.725Z,13.66
2019-03-22T09:07:52.596Z,13.47
2019-03-22T09:10:22.515Z,13.43
2019-03-22T09:12:52.593Z,13.30
2019-03-22T09:15:24.723Z,13.38
2019-03-22T09:17:54.661Z,13.80
2019-03-22T09:20:24.542Z,13.79
2019-03-22T09:22:54.535Z,13.91
2019-03-22T09:25:24.421Z,13.86
2019-03-22T09:27:54.290Z,13.99
2019-03-22T09:30:24.198Z,13.74
2019-03-22T09:32:54.088Z,13.93
2019-03-22T09:35:43.574Z,14.15
2019-03-22T09:38:13.506Z,13.97
2019-03-22T09:41:02.565Z,13.70
2019-03-22T09:43:32.622Z,13.89
2019-03-22T09:46:02.504Z,13.82
2019-03-22T09:48:32.526Z,14.23
2019-03-22T09:51:02.413Z,14.26
2019-03-22T09:53:32.268Z,14.30
2019-03-22T09:56:02.159Z,14.38
2019-03-22T09:58:32.148Z,14.62
2019-03-22T10:01:02.134Z,14.50
2019-03-22T10:03:32.104Z,14.82
2019-03-22T10:06:02.037Z,15.01
2019-03-22T10:08:31.909Z,14.96
2019-03-22T10:11:01.823Z,14.67
2019-03-22T10:13:31.707Z,14.53
2019-03-22T10:16:01.662Z,14.85
2019-03-22T10:18:31.677Z,14.85
2019-03-22T10:21:01.584Z,14.75
2019-03-22T10:23:31.468Z,14.75
2019-03-22T10:26:01.362Z,14.80
2019-03-22T10:28:31.242Z,14.97
2019-03-22T10:31:01.154Z,14.89
2019-03-22T10:33:31.026Z,14.96
2019-03-22T10:36:00.939Z,14.82
2019-03-22T10:38:32.154Z,14.96
2019-03-22T10:41:20.604Z,15.17
2019-03-22T10:43:50.545Z,15.18
2019-03-22T10:46:20.394Z,15.67
2019-03-22T10:48:50.310Z,15.58
2019-03-22T10:51:21.627Z,15.49
2019-03-22T10:54:10.449Z,15.83
2019-03-22T10:56:40.391Z,15.62
2019-03-22T10:59:10.284Z,15.54
2019-03-22T11:01:48.695Z,15.48
2019-03-22T11:04:29.970Z,15.09
2019-03-22T11:07:00.013Z,15.18
2019-03-22T11:09:29.959Z,15.32
2019-03-22T11:11:59.842Z,15.49
2019-03-22T11:14:29.755Z,15.47
2019-03-22T11:16:59.687Z,15.48
2019-03-22T11:19:29.693Z,15.22
2019-03-22T11:21:59.604Z,15.51
2019-03-22T11:24:29.518Z,15.75
2019-03-22T11:26:59.404Z,15.74
2019-03-22T11:29:29.613Z,15.53
2019-03-22T11:31:59.602Z,15.43
2019-03-22T11:34:29.498Z,15.44
2019-03-22T11:36:59.375Z,15.64
2019-03-22T11:39:29.257Z,15.81
2019-03-22T11:45:01.935Z,15.73
2019-03-22T11:47:31.901Z,15.95
2019-03-22T11:50:01.800Z,15.99
2019-03-22T11:52:31.817Z,15.66
2019-03-22T11:55:01.861Z,15.64
2019-03-22T11:57:31.784Z,15.78
2019-03-22T12:00:01.664Z,15.87
2019-03-22T12:02:31.564Z,16.17
2019-03-22T12:05:01.592Z,15.96
2019-03-22T12:07:31.531Z,16.12
2019-03-22T12:10:01.749Z,16.03
2019-03-22T12:12:31.637Z,15.93
2019-03-22T12:15:01.519Z,15.90
2019-03-22T12:17:31.445Z,15.87
2019-03-22T12:20:01.426Z,16.00
2019-03-22T12:22:31.280Z,15.89
2019-03-22T12:25:01.150Z,15.97
2019-03-22T12:27:36.433Z,15.83
2019-03-22T12:30:20.937Z,16.00
2019-03-22T12:32:50.850Z,16.04
2019-03-22T12:38:23.115Z,16.43
2019-03-22T12:40:53.057Z,16.42
2019-03-22T12:43:22.929Z,16.38
2019-03-22T12:45:52.806Z,16.40
2019-03-22T12:48:22.694Z,16.26
2019-03-22T12:50:52.580Z,16.62
2019-03-22T12:53:22.477Z,16.87
2019-03-22T12:55:52.347Z,17.16
2019-03-22T12:58:22.219Z,17.76
2019-03-22T13:00:52.134Z,17.16
2019-03-22T13:03:21.378Z,17.46
2019-03-22T13:05:51.260Z,17.12
2019-03-22T13:08:21.178Z,17.74
2019-03-22T13:10:51.051Z,17.16
2019-03-22T13:13:20.936Z,17.53
2019-03-22T13:15:50.816Z,17.28
2019-03-22T13:18:20.825Z,17.24
2019-03-22T13:20:51.213Z,17.16
2019-03-22T13:23:40.476Z,17.24
2019-03-22T13:26:10.438Z,17.61
2019-03-22T13:28:40.326Z,17.77
2019-03-22T13:31:11.676Z,16.66
2019-03-22T13:34:00.014Z,17.34
2019-03-22T13:39:13.445Z,17.47
2019-03-22T13:41:43.390Z,17.64
2019-03-22T13:44:13.264Z,17.49
2019-03-22T13:49:45.808Z,16.89
2019-03-22T13:52:15.682Z,16.82
2019-03-22T13:57:29.340Z,17.08
2019-03-22T13:59:59.241Z,16.53
2019-03-22T14:02:29.121Z,16.59
2019-03-22T14:04:59.015Z,16.74
2019-03-22T14:07:28.896Z,16.73
2019-03-22T14:09:58.811Z,16.69
2019-03-22T14:15:08.826Z,16.61
2019-03-22T14:17:38.734Z,16.48
2019-03-22T14:20:20.374Z,16.45
2019-03-22T14:22:49.559Z,16.46
2019-03-22T14:25:19.439Z,16.46
2019-03-22T14:27:48.512Z,16.59
2019-03-22T14:30:17.894Z,16.47
2019-03-22T14:32:47.790Z,16.51
2019-03-22T14:35:17.676Z,16.38
2019-03-22T14:37:47.539Z,16.34
2019-03-22T14:40:17.436Z,16.55
2019-03-22T14:42:47.451Z,16.47
2019-03-22T14:45:17.431Z,16.44
2019-03-22T14:47:47.303Z,16.48
2019-03-22T14:50:17.183Z,16.51
2019-03-22T14:52:47.044Z,16.49
2019-03-22T14:55:16.974Z,16.35
2019-03-22T14:57:50.060Z,16.38
2019-03-22T15:00:36.647Z,16.78
2019-03-22T15:03:23.459Z,16.76
2019-03-22T15:06:06.531Z,16.59
2019-03-22T15:11:19.447Z,17.15
2019-03-22T15:14:08.803Z,16.96
2019-03-22T15:16:57.456Z,17.55
2019-03-22T15:19:46.576Z,17.15
2019-03-22T15:22:35.648Z,17.06
2019-03-22T15:25:25.671Z,17.47
2019-03-22T15:28:15.057Z,17.83
2019-03-22T15:34:06.691Z,18.26
2019-03-22T15:36:56.153Z,18.38
2019-03-22T15:39:45.513Z,18.41
2019-03-22T15:42:15.411Z,18.39
2019-03-22T15:44:45.294Z,18.31
2019-03-22T15:47:15.199Z,18.47
2019-03-22T15:49:44.492Z,18.61
2019-03-22T15:52:14.372Z,18.58
2019-03-22T15:54:44.241Z,18.68
2019-03-22T15:57:14.150Z,18.71
2019-03-22T15:59:44.037Z,18.67
2019-03-22T16:02:14.131Z,18.76
2019-03-22T16:04:44.007Z,18.55
2019-03-22T16:07:13.948Z,18.66
2019-03-22T16:09:43.268Z,18.46
2019-03-22T16:12:13.246Z,17.46
2019-03-22T16:14:43.151Z,16.95
2019-03-22T16:17:13.033Z,16.89
2019-03-22T16:19:42.952Z,16.77
2019-03-22T16:22:12.901Z,16.75
2019-03-22T16:24:43.024Z,16.67
2019-03-22T16:27:12.961Z,16.57
2019-03-22T16:29:42.839Z,16.67
2019-03-22T16:32:12.812Z,16.46
2019-03-22T16:34:42.835Z,16.58
2019-03-22T16:37:12.744Z,16.54
2019-03-22T16:39:42.804Z,16.45
2019-03-22T16:42:12.692Z,16.56
2019-03-22T16:44:42.588Z,16.64
2019-03-22T16:47:12.531Z,16.51
2019-03-22T16:49:42.462Z,16.35
2019-03-22T16:52:12.370Z,16.51
2019-03-22T16:54:42.469Z,16.04
2019-03-22T16:57:13.366Z,16.29
2019-03-22T16:59:43.080Z,16.27
2019-03-22T17:02:13.063Z,16.32
2019-03-22T17:04:42.969Z,16.56
2019-03-22T17:09:58.411Z,15.69
2019-03-22T17:12:28.322Z,16.01
2019-03-22T17:14:58.676Z,16.38
2019-03-22T17:17:28.594Z,16.29
2019-03-22T17:19:59.441Z,16.44
2019-03-22T17:22:29.346Z,16.18
2019-03-22T17:24:59.352Z,15.74
2019-03-22T17:27:29.250Z,15.68
2019-03-22T17:29:59.153Z,15.70
2019-03-22T17:32:29.031Z,15.71
2019-03-22T17:34:58.915Z,15.66
2019-03-22T17:37:28.860Z,15.59
2019-03-22T17:39:58.820Z,15.62
2019-03-22T17:42:28.700Z,15.39
2019-03-22T17:44:58.568Z,15.65
2019-03-22T17:47:28.581Z,15.57
2019-03-22T17:49:58.488Z,15.67
2019-03-22T17:52:28.384Z,15.53
2019-03-22T17:54:58.304Z,15.44
2019-03-22T17:57:28.195Z,15.68
2019-03-22T17:59:58.111Z,15.82
2019-03-22T18:02:28.077Z,15.65
2019-03-22T18:04:57.976Z,15.47
2019-03-22T18:07:27.978Z,15.50
2019-03-22T18:09:57.908Z,14.85
2019-03-22T18:12:27.849Z,14.81
2019-03-22T18:14:57.739Z,14.34
2019-03-22T18:17:27.705Z,14.24
2019-03-22T18:19:57.584Z,14.00
2019-03-22T18:28:14.484Z,13.84
2019-03-22T18:30:55.739Z,13.59
2019-03-22T18:33:25.124Z,13.38
2019-03-22T18:35:55.075Z,13.39
2019-03-22T18:41:08.691Z,13.35
2019-03-22T18:43:38.560Z,13.26
2019-03-22T18:46:08.464Z,13.49
2019-03-22T18:48:38.427Z,13.60
2019-03-22T18:51:19.829Z,13.15
2019-03-22T18:53:49.323Z,13.31
2019-03-22T18:56:19.223Z,13.28
2019-03-22T18:58:49.108Z,13.65
2019-03-22T19:01:19.078Z,13.37
2019-03-22T19:03:48.946Z,12.72
2019-03-22T19:06:19.004Z,12.58
2019-03-22T19:11:32.676Z,12.76
2019-03-22T19:17:05.637Z,12.54
2019-03-22T19:19:35.628Z,12.40
2019-03-22T19:22:17.541Z,12.48
2019-03-22T19:24:58.788Z,12.30
2019-03-22T19:27:28.018Z,12.49
2019-03-22T19:29:58.347Z,12.60
2019-03-22T19:32:28.260Z,12.48
2019-03-22T19:34:58.307Z,11.95
2019-03-22T19:37:28.218Z,11.95
2019-03-22T19:39:58.090Z,11.90
2019-03-22T19:42:28.550Z,11.66
2019-03-22T19:44:58.509Z,11.73
2019-03-22T19:47:28.485Z,11.76
2019-03-22T19:49:58.512Z,12.14
2019-03-22T19:52:28.440Z,12.39
2019-03-22T19:54:58.328Z,12.40
2019-03-22T19:57:28.693Z,12.22
2019-03-22T19:59:58.653Z,11.85
2019-03-22T20:02:28.256Z,11.48
2019-03-22T20:07:42.219Z,11.88
2019-03-22T20:10:12.516Z,11.88
2019-03-22T20:12:42.650Z,12.19
2019-03-22T20:18:15.145Z,11.39
2019-03-22T20:23:53.524Z,11.62
2019-03-22T20:29:43.957Z,11.40
2019-03-22T20:34:56.989Z,10.82
2019-03-22T20:37:26.928Z,10.84
2019-03-22T20:39:56.839Z,10.73
2019-03-22T20:42:26.879Z,10.54
2019-03-22T20:44:56.766Z,10.64
2019-03-22T20:47:26.850Z,10.78
2019-03-22T20:49:57.076Z,10.67
2019-03-22T20:52:27.435Z,10.95
2019-03-22T20:54:57.468Z,10.74
2019-03-22T20:57:27.326Z,10.94
2019-03-22T20:59:57.617Z,11.09
2019-03-22T21:02:27.638Z,10.72
2019-03-22T21:04:57.872Z,11.06
2019-03-22T21:07:28.388Z,10.92
2019-03-22T21:09:58.289Z,10.93
2019-03-22T21:12:28.426Z,10.67
2019-03-22T21:14:58.586Z,10.44
2019-03-22T21:17:28.480Z,10.46
2019-03-22T21:19:58.382Z,10.52
2019-03-22T21:22:28.661Z,10.70
2019-03-22T21:24:58.557Z,11.25
2019-03-22T21:27:29.062Z,11.00
2019-03-22T21:29:59.278Z,11.30
2019-03-22T21:35:37.172Z,10.67
2019-03-22T21:38:22.039Z,10.97
2019-03-22T21:40:51.963Z,10.71
2019-03-22T21:46:23.719Z,10.93
2019-03-22T21:48:53.979Z,10.55
2019-03-22T21:51:23.900Z,10.42
2019-03-22T21:53:54.125Z,10.71
2019-03-22T21:56:24.024Z,10.64
2019-03-22T21:58:54.232Z,10.41
2019-03-22T22:01:24.401Z,10.69
2019-03-22T22:03:54.727Z,11.30
2019-03-22T22:06:24.674Z,11.31
2019-03-22T22:08:54.565Z,11.27
2019-03-22T22:11:24.443Z,10.46
2019-03-22T22:13:54.335Z,10.76
2019-03-22T22:16:24.229Z,10.20
2019-03-22T22:18:54.115Z,10.40
2019-03-22T22:21:23.307Z,10.71
2019-03-22T22:23:53.211Z,10.87
2019-03-22T22:26:23.079Z,10.02
2019-03-22T22:28:52.386Z,10.26
2019-03-22T22:31:24.554Z,9.91
2019-03-22T22:33:54.442Z,9.84
2019-03-22T22:36:24.334Z,9.95
2019-03-22T22:38:54.210Z,10.09
2019-03-22T22:41:23.305Z,9.66
2019-03-22T22:43:53.180Z,9.86
2019-03-22T22:46:23.060Z,10.06
2019-03-22T22:48:52.976Z,9.50
2019-03-22T22:51:22.848Z,9.57
2019-03-22T22:53:52.717Z,9.59
2019-03-22T22:56:21.895Z,9.25
2019-03-22T22:58:51.809Z,9.66
2019-03-22T23:01:21.656Z,9.19
2019-03-22T23:03:51.629Z,9.01
2019-03-22T23:06:21.507Z,8.88
2019-03-22T23:08:51.405Z,9.51
2019-03-22T23:11:21.269Z,9.98
2019-03-22T23:13:51.155Z,9.28
2019-03-22T23:16:21.073Z,9.18
2019-03-22T23:18:50.961Z,8.85
2019-03-22T23:24:02.215Z,9.13
2019-03-22T23:26:31.410Z,8.71
2019-03-22T23:29:01.282Z,8.79
2019-03-22T23:31:31.175Z,9.11
2019-03-22T23:34:01.094Z,9.26
2019-03-22T23:36:30.950Z,8.82
2019-03-22T23:39:00.828Z,8.49
2019-03-22T23:41:30.728Z,8.82
2019-03-22T23:44:00.595Z,8.61
2019-03-22T23:46:30.511Z,8.60
2019-03-22T23:49:00.373Z,8.75
2019-03-22T23:51:30.269Z,8.67
2019-03-22T23:54:00.237Z,8.87
2019-03-22T23:56:30.138Z,8.70
2019-03-22T23:59:00.018Z,8.60
